This is the latest recevied weather packets stored in our database for station/object N9BID. If no packets are shown the sender has not sent any weather packets the latest 10 day(s).
| Time | Temp. | Humidity | Pressure | Rain* | Wind** | Luminosity | Snow |
|---|---|---|---|---|---|---|---|
| 1777134732 | 11.67° C | 70% | 1010.2 hPa | 0 mm | - | 301 W/m² | - |
| 1777134427 | 11.67° C | 72% | 1010.1 hPa | 0 mm | - | 304 W/m² | - |
| 1777134123 | 12.22° C | 70% | 1010.1 hPa | 0 mm | - | 247 W/m² | - |
| 1777133821 | 12.22° C | 71% | 1010.3 hPa | 0 mm | - | 273 W/m² | - |
| 1777133516 | 11.67° C | 73% | 1010.2 hPa | 0 mm | - | 301 W/m² | - |
| 1777133216 | 11.67° C | 74% | 1010.4 hPa | 0 mm | - | 239 W/m² | - |
| 1777132911 | 11.67° C | 74% | 1010.4 hPa | 0 mm | - | 280 W/m² | - |
| 1777132607 | 11.67° C | 72% | 1009.9 hPa | 0 mm | - | 335 W/m² | - |
| 1777132304 | 12.22° C | 70% | 1010 hPa | 0 mm | - | 333 W/m² | - |
| 1777132000 | 12.22° C | 70% | 1009.9 hPa | 0 mm | - | 490 W/m² | - |
| 1777131699 | 12.22° C | 70% | 1010 hPa | 0 mm | - | 490 W/m² | - |
| 1777131398 | 11.67° C | 72% | 1010 hPa | 0 mm | - | 469 W/m² | - |
| 1777131097 | 11.67° C | 69% | 1009.7 hPa | 0 mm | - | 662 W/m² | - |
| 1777130793 | 10.56° C | 76% | 1009.9 hPa | 0 mm | - | 364 W/m² | - |
| 1777130489 | 11.11° C | 75% | 1009.6 hPa | 0 mm | - | 214 W/m² | - |
| 1777130186 | 11.67° C | 74% | 1009.3 hPa | 0 mm | - | 410 W/m² | - |
| 1777129882 | 10.56° C | 77% | 1009.1 hPa | 0 mm | - | 532 W/m² | - |
| 1777129577 | 10° C | 76% | 1009.1 hPa | 0 mm | - | 209 W/m² | - |
| 1777129276 | 10.56° C | 76% | 1008.9 hPa | 0 mm | - | 223 W/m² | - |
| 1777128972 | 10.56° C | 77% | 1008.8 hPa | 0 mm | - | 486 W/m² | - |
| 1777128668 | 10° C | 80% | 1009.1 hPa | 0 mm | - | 441 W/m² | - |
| 1777128366 | 10° C | 79% | 1009.5 hPa | 0 mm | - | 266 W/m² | - |
| 1777128063 | 10° C | 78% | 1009.3 hPa | 0 mm | - | 356 W/m² | - |
| 1777127761 | 10.56° C | 78% | 1009.5 hPa | 0 mm | - | 457 W/m² | - |
| 1777127457 | 10.56° C | 80% | 1009.2 hPa | 0 mm | - | 493 W/m² | - |
* Rain latest hour (hover to see other rain measurements)
** Current wind speed in m/s (hover to see current wind gust speed)